Time;durP1;ratioP1;P1;durP2;ratioP2;P2;SDS_P1;SDS_P2;PMS_P1;PMS_P2;Temp;Humidity;BMP_temperature;BMP_pressure;BME280_temperature;BME280_humidity;BME280_pressure;Samples;Min_cycle;Max_cycle;Signal;HPM_P1;HPM_P2
2023/06/06 00:01:45;;;;;;;8.88;3.63;;;;;;;11.16;63.03;100211.41;5052952;28;20065;-60
2023/06/06 00:04:11;;;;;;;5.47;3.00;;;;;;;11.21;62.89;100221.78;5034722;28;20029;-62
2023/06/06 00:06:37;;;;;;;10.10;3.63;;;;;;;11.25;63.18;100223.25;5035038;28;20033;-61
2023/06/06 00:09:04;;;;;;;6.05;3.22;;;;;;;11.24;62.82;100213.50;5052529;28;20108;-62
2023/06/06 00:11:30;;;;;;;6.53;3.15;;;;;;;11.29;62.83;100223.88;5052550;28;20071;-63
2023/06/06 00:13:56;;;;;;;8.65;3.05;;;;;;;11.26;62.91;100210.72;5052287;28;20029;-63
2023/06/06 00:16:23;;;;;;;5.90;2.92;;;;;;;11.30;62.46;100218.38;5052145;28;20024;-61
2023/06/06 00:18:52;;;;;;;6.47;2.97;;;;;;;11.26;62.89;100214.22;5051591;28;20053;-62
2023/06/06 00:21:18;;;;;;;6.25;2.75;;;;;;;11.30;62.57;100218.38;5051511;28;20400;-60
2023/06/06 00:23:44;;;;;;;8.32;3.10;;;;;;;11.34;62.58;100217.19;5051719;28;20044;-61
2023/06/06 00:26:10;;;;;;;5.70;2.85;;;;;;;11.38;62.46;100217.78;5051981;28;20055;-62
2023/06/06 00:28:36;;;;;;;6.40;3.20;;;;;;;11.40;62.21;100217.69;5051794;28;20037;-70
2023/06/06 00:31:01;;;;;;;6.80;3.10;;;;;;;11.48;62.28;100224.16;5052395;28;20111;-61
2023/06/06 00:33:27;;;;;;;6.28;2.90;;;;;;;11.45;62.09;100212.81;5051921;28;20074;-62
2023/06/06 00:35:53;;;;;;;5.95;3.33;;;;;;;11.53;61.92;100220.25;5052216;28;20040;-60
2023/06/06 00:38:18;;;;;;;7.28;3.13;;;;;;;11.56;61.92;100220.84;5034047;28;20173;-62
2023/06/06 00:40:44;;;;;;;8.13;3.00;;;;;;;11.62;61.41;100223.06;5051828;28;20048;-61
2023/06/06 00:43:10;;;;;;;5.70;2.88;;;;;;;11.65;61.52;100229.16;5034926;28;20040;-60
2023/06/06 00:45:35;;;;;;;5.63;2.83;;;;;;;11.70;61.44;100241.25;5052175;28;20033;-61
2023/06/06 00:48:02;;;;;;;7.00;2.72;;;;;;;11.73;61.13;100226.72;5051991;28;20024;-60
2023/06/06 00:50:28;;;;;;;7.15;3.10;;;;;;;11.79;60.92;100245.00;5052039;28;20064;-61
2023/06/06 00:52:53;;;;;;;10.13;3.05;;;;;;;11.79;61.00;100236.94;5033997;28;20479;-62
2023/06/06 00:55:20;;;;;;;11.45;2.92;;;;;;;11.81;60.78;100240.34;5051545;28;20102;-60
2023/06/06 00:57:48;;;;;;;4.45;2.25;;;;;;;11.87;60.52;100245.25;5051687;28;20021;-61
2023/06/06 01:00:15;;;;;;;5.57;2.83;;;;;;;11.86;60.33;100240.88;5051580;28;20029;-62
2023/06/06 01:02:43;;;;;;;4.80;3.00;;;;;;;11.88;60.24;100240.72;5015472;28;20025;-62
2023/06/06 01:05:10;;;;;;;4.07;2.30;;;;;;;11.91;60.20;100252.09;5051472;28;20112;-61
2023/06/06 01:07:38;;;;;;;6.95;2.83;;;;;;;11.97;60.04;100249.88;5052371;28;20033;-61
2023/06/06 01:10:09;;;;;;;8.13;2.90;;;;;;;11.99;59.63;100242.56;5051594;28;20055;-61
2023/06/06 01:13:09;;;;;;;6.05;2.80;;;;;;;12.13;59.96;100255.78;5051435;28;20080;-61
2023/06/06 01:15:39;;;;;;;9.00;2.45;;;;;;;12.12;59.68;100254.06;5052025;28;20407;-61
2023/06/06 01:18:06;;;;;;;5.75;2.58;;;;;;;12.03;59.53;100261.03;5051554;28;20029;-63
2023/06/06 01:20:34;;;;;;;9.30;2.55;;;;;;;12.04;59.08;100253.81;5051167;28;20112;-61
2023/06/06 01:23:01;;;;;;;4.55;2.63;;;;;;;12.05;59.52;100247.47;5051758;28;20048;-61
2023/06/06 01:25:27;;;;;;;5.93;2.80;;;;;;;12.09;59.38;100254.31;5034681;28;20369;-60
2023/06/06 01:27:55;;;;;;;5.78;2.42;;;;;;;12.15;59.46;100264.56;5051386;28;20055;-62
2023/06/06 01:30:27;;;;;;;9.88;2.70;;;;;;;12.24;58.94;100259.41;5051473;28;20064;-61
2023/06/06 01:33:09;;;;;;;5.78;2.55;;;;;;;12.29;58.77;100260.75;5053905;28;20366;-60
2023/06/06 01:35:51;;;;;;;5.15;2.63;;;;;;;12.31;58.96;100266.84;5021884;28;20029;-61
2023/06/06 01:38:24;;;;;;;6.22;2.28;;;;;;;12.19;58.94;100241.84;5055078;28;20037;-63
2023/06/06 01:40:53;;;;;;;5.13;2.42;;;;;;;12.33;58.92;100258.69;5055316;28;20067;-61
2023/06/06 01:43:23;;;;;;;5.50;2.85;;;;;;;12.35;58.52;100265.63;5037672;28;20166;-60
2023/06/06 01:45:49;;;;;;;5.70;2.80;;;;;;;12.01;58.50;100206.63;5055426;28;20032;-61
2023/06/06 01:48:17;;;;;;;12.10;2.75;;;;;;;12.35;58.32;100254.03;5054620;28;20041;-61
2023/06/06 01:50:44;;;;;;;5.35;2.42;;;;;;;12.44;58.00;100261.31;5054974;28;20075;-62
2023/06/06 01:53:09;;;;;;;3.92;2.70;;;;;;;12.50;57.93;100268.03;5055331;28;20090;-61
2023/06/06 01:55:36;;;;;;;7.90;2.53;;;;;;;12.53;58.06;100265.09;5055182;28;20396;-61
2023/06/06 01:58:03;;;;;;;7.05;2.70;;;;;;;12.54;58.00;100260.56;5054236;28;20033;-61
2023/06/06 02:00:29;;;;;;;4.45;2.70;;;;;;;12.61;57.96;100278.75;5037023;28;20029;-60
2023/06/06 02:02:54;;;;;;;5.43;3.10;;;;;;;12.65;57.70;100255.19;5054854;28;20029;-62
2023/06/06 02:05:20;;;;;;;5.45;2.20;;;;;;;12.72;57.38;100264.44;5054882;28;20029;-60
2023/06/06 02:07:49;;;;;;;5.22;2.55;;;;;;;12.84;57.36;100275.16;5054334;28;20029;-62
2023/06/06 02:10:15;;;;;;;5.65;2.92;;;;;;;12.90;56.78;100275.50;5054721;28;20412;-60
2023/06/06 02:12:41;;;;;;;3.90;2.90;;;;;;;12.80;57.00;100253.03;5054895;28;20029;-60
2023/06/06 02:15:10;;;;;;;7.78;2.80;;;;;;;12.84;56.64;100254.50;5054647;28;20032;-60
2023/06/06 02:17:38;;;;;;;7.10;2.65;;;;;;;13.12;56.37;100280.91;5054552;28;20029;-61
2023/06/06 02:20:04;;;;;;;6.70;2.78;;;;;;;13.20;56.49;100286.47;5054172;28;20056;-62
2023/06/06 02:22:31;;;;;;;8.05;3.00;;;;;;;13.27;55.82;100281.44;5054619;28;20060;-61
2023/06/06 02:24:56;;;;;;;6.63;2.83;;;;;;;13.35;55.30;100277.13;5054402;28;20067;-61
2023/06/06 02:27:23;;;;;;;7.30;2.65;;;;;;;13.41;55.41;100277.56;5054251;28;20407;-61
2023/06/06 02:29:49;;;;;;;6.45;3.00;;;;;;;13.43;54.98;100276.50;5036852;28;20021;-61
2023/06/06 02:32:15;;;;;;;10.32;2.83;;;;;;;13.55;55.08;100285.34;5054960;28;20037;-60
2023/06/06 02:34:41;;;;;;;7.43;3.25;;;;;;;13.64;54.64;100279.16;5054480;28;20040;-61
2023/06/06 02:37:06;;;;;;;7.32;2.70;;;;;;;13.69;54.24;100277.91;5054422;28;20025;-62
2023/06/06 02:39:33;;;;;;;14.10;3.03;;;;;;;13.73;54.11;100280.22;5053848;28;20036;-59
2023/06/06 02:41:59;;;;;;;10.38;3.30;;;;;;;13.81;53.96;100281.38;5036358;28;20044;-61
2023/06/06 02:44:26;;;;;;;12.02;3.30;;;;;;;13.89;53.93;100285.09;5053435;28;20063;-62
2023/06/06 02:46:52;;;;;;;10.18;2.78;;;;;;;13.95;53.67;100285.53;5054175;28;20036;-60
2023/06/06 02:49:17;;;;;;;8.63;2.80;;;;;;;14.01;53.77;100290.41;5035833;28;20021;-61
2023/06/06 02:51:43;;;;;;;7.70;2.92;;;;;;;14.08;53.57;100291.56;5054406;28;20033;-61
2023/06/06 02:54:09;;;;;;;6.72;2.80;;;;;;;14.16;53.46;100288.19;5054519;28;20033;-62
2023/06/06 02:56:34;;;;;;;8.50;3.10;;;;;;;14.23;52.92;100272.31;5053642;28;20075;-62
2023/06/06 02:59:00;;;;;;;6.10;2.63;;;;;;;14.23;52.95;100259.72;5053392;28;20527;-61
2023/06/06 03:01:25;;;;;;;11.38;2.65;;;;;;;14.56;52.03;100286.47;5054077;28;20041;-63
2023/06/06 03:03:51;;;;;;;6.22;3.00;;;;;;;14.48;51.28;100249.44;5036381;28;20095;-60
2023/06/06 03:06:18;;;;;;;8.45;2.67;;;;;;;14.84;50.95;100292.94;5053670;28;20431;-60
2023/06/06 03:08:44;;;;;;;7.30;2.63;;;;;;;14.95;50.92;100289.25;5053366;28;20048;-64
2023/06/06 03:11:10;;;;;;;4.57;2.50;;;;;;;15.09;50.54;100300.59;5054070;28;20116;-62
2023/06/06 03:13:36;;;;;;;5.70;2.72;;;;;;;15.12;50.37;100292.22;5053638;28;20200;-61
2023/06/06 03:16:02;;;;;;;6.25;2.15;;;;;;;15.24;49.94;100292.94;5035939;28;20029;-61
2023/06/06 03:18:28;;;;;;;7.28;2.60;;;;;;;15.34;49.60;100296.50;5035121;28;20112;-60
2023/06/06 03:20:53;;;;;;;7.45;2.47;;;;;;;15.39;49.42;100290.66;5053419;28;20033;-62
2023/06/06 03:23:20;;;;;;;8.05;2.63;;;;;;;15.57;48.76;100305.13;5053533;28;20116;-61
2023/06/06 03:25:49;;;;;;;6.22;2.50;;;;;;;15.81;48.54;100298.38;5053073;28;20463;-73
2023/06/06 03:28:17;;;;;;;6.80;2.42;;;;;;;16.29;47.77;100309.19;5035605;28;20029;-61
2023/06/06 03:30:43;;;;;;;5.50;2.55;;;;;;;16.95;46.01;100307.22;5053751;28;20041;-61
2023/06/06 03:33:09;;;;;;;7.45;2.95;;;;;;;17.43;44.00;100264.53;5053226;28;20396;-61
2023/06/06 03:35:35;;;;;;;6.72;2.30;;;;;;;18.26;42.87;100302.13;5053080;28;20048;-61
2023/06/06 03:38:04;;;;;;;5.45;2.58;;;;;;;19.05;41.46;100300.03;5035044;28;20032;-62
2023/06/06 03:40:30;;;;;;;3.63;1.90;;;;;;;19.90;39.38;100292.47;5053396;28;20110;-61
2023/06/06 03:42:56;;;;;;;7.55;2.10;;;;;;;20.82;37.04;100311.22;5035759;28;20048;-61
2023/06/06 03:45:21;;;;;;;5.85;2.25;;;;;;;21.55;35.73;100299.91;5052645;28;20046;-63
2023/06/06 03:47:48;;;;;;;4.55;2.00;;;;;;;22.23;34.49;100302.63;5052784;28;20372;-72
2023/06/06 03:50:14;;;;;;;5.90;2.22;;;;;;;22.87;33.45;100294.81;5053436;28;20041;-61
2023/06/06 03:52:40;;;;;;;6.65;2.22;;;;;;;23.40;31.83;100277.31;5052976;28;20036;-61
2023/06/06 03:55:10;;;;;;;5.25;2.25;;;;;;;24.17;30.84;100294.69;5052475;28;20040;-61
2023/06/06 03:57:39;;;;;;;5.85;2.40;;;;;;;24.83;30.43;100305.25;5052274;28;20036;-61
2023/06/06 04:00:16;;;;;;;8.30;2.30;;;;;;;25.40;28.77;100307.69;5035161;28;20037;-61
2023/06/06 04:02:42;;;;;;;3.67;1.90;;;;;;;26.03;28.25;100289.91;5052400;28;20033;-61
2023/06/06 04:05:08;;;;;;;6.30;1.98;;;;;;;26.39;27.39;100283.09;5052172;28;20247;-62
2023/06/06 04:07:35;;;;;;;8.57;2.30;;;;;;;27.03;26.36;100304.31;5052224;28;20139;-61
2023/06/06 04:10:02;;;;;;;7.60;2.22;;;;;;;27.73;25.23;100305.25;5052095;28;20487;-60
2023/06/06 04:12:28;;;;;;;10.95;2.45;;;;;;;28.39;24.46;100286.38;5052426;28;20467;-61
2023/06/06 04:14:53;;;;;;;10.07;2.10;;;;;;;28.96;23.86;100284.38;5051594;28;20048;-61
2023/06/06 04:17:21;;;;;;;4.68;2.10;;;;;;;29.50;23.24;100300.94;5052518;28;20124;-73
2023/06/06 04:19:49;;;;;;;4.47;1.92;;;;;;;30.13;22.31;100293.00;5052291;28;20045;-61
2023/06/06 04:22:15;;;;;;;2.67;1.83;;;;;;;30.79;21.18;100284.41;5052446;28;20029;-62
2023/06/06 04:24:41;;;;;;;4.55;1.95;;;;;;;31.38;20.40;100303.72;5052383;28;20031;-61
2023/06/06 04:27:07;;;;;;;4.07;1.75;;;;;;;31.88;19.88;100286.25;5052206;28;20365;-61
2023/06/06 04:29:34;;;;;;;6.50;1.90;;;;;;;32.56;18.80;100290.72;5051409;28;20052;-61
2023/06/06 04:32:04;;;;;;;5.78;2.22;;;;;;;33.23;18.37;100273.91;5052326;28;20037;-62
2023/06/06 04:34:30;;;;;;;4.13;2.10;;;;;;;33.87;17.66;100290.75;5052068;28;20043;-60
2023/06/06 04:37:02;;;;;;;5.43;2.10;;;;;;;34.10;17.32;100300.66;5052156;28;20052;-62
2023/06/06 04:39:28;;;;;;;4.00;1.73;;;;;;;34.54;16.48;100290.31;5034177;28;20463;-62
2023/06/06 04:41:57;;;;;;;3.33;1.63;;;;;;;34.81;16.46;100297.59;5052205;28;20037;-62
2023/06/06 04:44:23;;;;;;;4.53;1.77;;;;;;;35.06;16.45;100292.09;5051972;28;20025;-62
2023/06/06 04:46:52;;;;;;;2.38;1.90;;;;;;;35.61;15.83;100293.50;5052266;28;20112;-62
2023/06/06 04:49:21;;;;;;;5.30;1.83;;;;;;;35.96;15.37;100283.38;5052483;28;20021;-61
2023/06/06 04:51:46;;;;;;;3.38;1.67;;;;;;;36.53;14.73;100291.53;5052198;28;20036;-60
2023/06/06 04:54:12;;;;;;;3.38;1.83;;;;;;;37.08;14.15;100285.09;5050989;28;20364;-62
2023/06/06 04:56:40;;;;;;;2.92;1.80;;;;;;;37.42;14.12;100294.56;5051408;28;20029;-61
2023/06/06 04:59:06;;;;;;;3.63;1.70;;;;;;;37.83;13.86;100285.78;5050650;28;20036;-62
2023/06/06 05:01:34;;;;;;;3.80;1.90;;;;;;;38.38;13.08;100292.13;5051799;28;20035;-62
2023/06/06 05:04:00;;;;;;;5.70;2.10;;;;;;;38.69;12.71;100261.78;5051638;28;20075;-60
2023/06/06 05:06:27;;;;;;;3.03;1.90;;;;;;;39.12;12.51;100277.66;5051255;28;20053;-60
2023/06/06 05:08:54;;;;;;;5.70;1.80;;;;;;;39.36;12.22;100278.66;5055125;28;20060;-66
2023/06/06 05:11:20;;;;;;;6.93;2.58;;;;;;;39.80;11.82;100273.66;5055437;28;20364;-61
2023/06/06 05:13:45;;;;;;;3.03;1.65;;;;;;;40.26;11.47;100281.13;5055577;28;20033;-61
2023/06/06 05:16:11;;;;;;;3.67;1.95;;;;;;;40.67;11.24;100279.41;5055600;28;20037;-62
2023/06/06 05:18:37;;;;;;;6.20;2.17;;;;;;;41.00;11.21;100276.41;5055147;28;20098;-62
2023/06/06 05:21:04;;;;;;;3.50;1.73;;;;;;;41.31;10.75;100284.06;5055159;28;20499;-65
2023/06/06 05:23:30;;;;;;;2.15;1.90;;;;;;;41.47;10.51;100283.66;5055169;28;20428;-61
2023/06/06 05:25:57;;;;;;;2.97;1.75;;;;;;;41.79;10.06;100286.47;5055681;28;20024;-58
2023/06/06 05:28:28;;;;;;;2.75;1.70;;;;;;;42.20;10.01;100278.84;5055058;28;20025;-69
2023/06/06 05:30:56;;;;;;;2.75;1.60;;;;;;;42.40;9.78;100291.47;5055301;28;20112;-56
2023/06/06 05:33:25;;;;;;;3.95;1.67;;;;;;;42.65;9.55;100286.22;5055505;28;20492;-53
2023/06/06 05:35:52;;;;;;;3.60;1.55;;;;;;;42.64;9.54;100278.94;5055831;28;20472;-60
2023/06/06 05:38:19;;;;;;;2.47;1.20;;;;;;;42.88;8.93;100270.84;5055185;28;20150;-59
2023/06/06 05:40:45;;;;;;;4.10;1.50;;;;;;;43.18;9.00;100270.16;5054464;28;20024;-60
2023/06/06 05:43:13;;;;;;;4.85;1.40;;;;;;;43.24;8.79;100259.50;5054995;28;20067;-58
2023/06/06 05:45:39;;;;;;;4.60;1.92;;;;;;;42.82;8.80;100193.31;5037836;28;20445;-61
2023/06/06 05:48:04;;;;;;;3.20;1.40;;;;;;;43.15;8.61;100259.53;5054793;28;20081;-60
2023/06/06 05:50:30;;;;;;;2.55;1.45;;;;;;;43.56;8.58;100269.38;5054810;28;20086;-59
2023/06/06 05:52:56;;;;;;;1.60;1.50;;;;;;;43.60;8.08;100247.78;5054689;28;20052;-62
2023/06/06 05:55:32;;;;;;;3.05;1.63;;;;;;;44.16;8.36;100269.47;5055363;28;20029;-63
2023/06/06 05:57:59;;;;;;;3.30;1.58;;;;;;;44.02;8.10;100251.94;5054157;28;20032;-61
2023/06/06 06:00:26;;;;;;;2.22;1.45;;;;;;;44.39;7.75;100259.84;5036699;28;20037;-74
2023/06/06 06:02:55;;;;;;;2.10;1.30;;;;;;;44.72;7.72;100267.56;5054879;28;20498;-64
2023/06/06 06:05:28;;;;;;;3.03;1.45;;;;;;;45.39;7.51;100256.28;5054485;28;20075;-62
2023/06/06 06:07:54;;;;;;;4.18;1.60;;;;;;;45.48;7.50;100259.00;5054431;28;20446;-62
2023/06/06 06:10:21;;;;;;;3.55;1.55;;;;;;;45.42;7.44;100249.94;5054271;28;20128;-63
2023/06/06 06:12:47;;;;;;;5.07;1.60;;;;;;;45.78;7.29;100258.81;5054180;28;20040;-62
2023/06/06 06:15:13;;;;;;;2.90;1.50;;;;;;;46.04;6.94;100254.78;5036553;28;20036;-62
2023/06/06 06:17:38;;;;;;;2.13;1.40;;;;;;;45.42;7.11;100249.94;5053345;28;20032;-64
2023/06/06 06:20:08;;;;;;;3.17;1.42;;;;;;;45.10;7.48;100252.44;5053033;28;20100;-71
2023/06/06 06:22:37;;;;;;;4.72;1.25;;;;;;;45.93;6.98;100256.47;5054259;28;20040;-62
2023/06/06 06:25:05;;;;;;;1.48;1.30;;;;;;;46.54;6.33;100249.06;5053926;28;20021;-62
2023/06/06 06:27:31;;;;;;;2.00;1.50;;;;;;;47.12;5.96;100250.72;5054121;28;20072;-74
2023/06/06 06:29:57;;;;;;;1.42;1.30;;;;;;;47.67;5.67;100255.81;5053440;28;20084;-77
2023/06/06 06:32:23;;;;;;;1.45;1.35;;;;;;;48.22;5.58;100258.75;5053956;28;20355;-62
2023/06/06 06:34:49;;;;;;;3.08;1.40;;;;;;;48.20;5.69;100243.25;5036225;28;20531;-66
2023/06/06 06:37:16;;;;;;;3.08;1.70;;;;;;;48.48;5.37;100236.59;5053468;28;20063;-62
2023/06/06 06:39:42;;;;;;;2.67;1.90;;;;;;;48.82;5.40;100240.53;5035465;28;20369;-62
2023/06/06 06:42:07;;;;;;;2.83;1.73;;;;;;;49.05;4.82;100248.28;5035960;28;20021;-64
2023/06/06 06:44:33;;;;;;;2.25;2.08;;;;;;;49.18;4.75;100246.09;5053568;28;20440;-63
2023/06/06 06:46:58;;;;;;;3.15;2.50;;;;;;;49.42;4.69;100233.53;5053352;28;20032;-65
2023/06/06 06:49:24;;;;;;;3.83;2.38;;;;;;;49.27;4.87;100234.47;5053136;28;20151;-62
2023/06/06 06:51:52;;;;;;;8.13;2.30;;;;;;;49.52;4.78;100232.09;5053903;28;20063;-63
2023/06/06 06:54:21;;;;;;;3.90;2.10;;;;;;;49.42;4.51;100221.31;5053738;28;20105;-63
2023/06/06 06:56:48;;;;;;;3.67;2.75;;;;;;;49.76;4.64;100247.09;5053283;28;20040;-64
2023/06/06 06:59:14;;;;;;;2.40;2.20;;;;;;;50.08;3.89;100235.38;5052712;28;20036;-62
2023/06/06 07:01:40;;;;;;;4.20;2.10;;;;;;;50.68;4.20;100227.22;5053890;28;20037;-63
2023/06/06 07:04:08;;;;;;;3.35;2.25;;;;;;;50.73;4.10;100223.22;5053463;28;20076;-64
2023/06/06 07:06:36;;;;;;;3.50;1.88;;;;;;;50.60;4.00;100236.91;5053133;28;20115;-64
2023/06/06 07:09:04;;;;;;;2.78;1.67;;;;;;;49.60;4.52;100240.75;5053009;28;20036;-63
2023/06/06 07:11:30;;;;;;;1.88;1.77;;;;;;;46.71;5.47;100211.94;5053365;28;20479;-67
2023/06/06 07:13:56;;;;;;;1.85;1.58;;;;;;;46.63;5.62;100220.59;5053393;28;20067;-64
2023/06/06 07:16:23;;;;;;;1.85;1.75;;;;;;;47.44;5.42;100225.22;5052625;28;20033;-63
2023/06/06 07:18:51;;;;;;;2.33;1.52;;;;;;;48.37;5.17;100225.00;5052381;28;20060;-69
2023/06/06 07:21:19;;;;;;;1.70;1.40;;;;;;;49.31;4.70;100226.03;5053571;28;20052;-62
2023/06/06 07:23:47;;;;;;;2.13;1.52;;;;;;;50.20;4.30;100220.09;5053266;28;20104;-62
2023/06/06 07:26:17;;;;;;;4.43;1.85;;;;;;;50.76;4.29;100228.94;5052630;28;20056;-64
2023/06/06 07:28:49;;;;;;;2.67;2.00;;;;;;;51.34;3.57;100228.72;5050831;28;20416;-63
2023/06/06 07:31:15;;;;;;;6.22;1.70;;;;;;;51.48;3.44;100228.84;5046366;28;20039;-64
2023/06/06 07:33:40;;;;;;;2.10;2.00;;;;;;;51.86;3.12;100219.34;5052092;28;20025;-63
2023/06/06 07:36:13;;;;;;;2.42;2.10;;;;;;;51.73;3.58;100207.44;5052195;28;20050;-65
2023/06/06 07:38:39;;;;;;;2.10;2.00;;;;;;;49.99;4.18;100218.59;5051304;28;20021;-63
2023/06/06 07:41:05;;;;;;;1.70;1.60;;;;;;;48.99;4.29;100210.00;5052496;28;20029;-64
2023/06/06 07:43:30;;;;;;;2.88;1.95;;;;;;;49.51;4.25;100219.09;5052455;28;20035;-67
2023/06/06 07:45:56;;;;;;;2.85;1.90;;;;;;;50.62;3.74;100206.81;5037391;28;20450;-62
2023/06/06 07:48:21;;;;;;;3.08;2.22;;;;;;;50.19;3.52;100212.75;5040066;28;20116;-62
2023/06/06 07:50:47;;;;;;;2.30;2.10;;;;;;;50.62;3.89;100212.50;5052318;28;20037;-63
2023/06/06 07:53:13;;;;;;;1.83;1.63;;;;;;;48.91;4.41;100214.72;5052222;28;20029;-63
2023/06/06 07:55:38;;;;;;;3.42;1.90;;;;;;;44.84;5.96;100224.41;5051882;28;20455;-62
2023/06/06 07:58:10;;;;;;;1.98;1.73;;;;;;;41.88;7.95;100217.88;5051972;28;20025;-63
2023/06/06 08:00:36;;;;;;;3.55;1.50;;;;;;;42.78;7.37;100205.56;5051473;28;20160;-64
2023/06/06 08:03:02;;;;;;;1.67;1.58;;;;;;;43.86;6.60;100204.56;5052047;28;20345;-67
2023/06/06 08:05:27;;;;;;;2.42;1.52;;;;;;;42.15;7.36;100187.03;5050210;28;20025;-61
2023/06/06 08:07:53;;;;;;;1.55;1.35;;;;;;;42.62;7.98;100186.38;5051648;28;20445;-61
2023/06/06 08:10:18;;;;;;;1.58;1.40;;;;;;;43.06;7.23;100193.94;5051454;28;20047;-63
2023/06/06 08:12:45;;;;;;;4.63;1.50;;;;;;;41.57;7.88;100164.50;5034492;28;20094;-59
2023/06/06 08:15:11;;;;;;;2.40;1.30;;;;;;;41.46;8.17;100198.53;5051191;28;20511;-58
2023/06/06 08:17:36;;;;;;;2.40;1.40;;;;;;;41.03;8.35;100183.13;5051565;28;20064;-60
2023/06/06 08:20:06;;;;;;;2.63;1.50;;;;;;;40.68;8.72;100196.06;5051193;28;20073;-67
2023/06/06 08:22:33;;;;;;;1.40;1.30;;;;;;;39.06;9.71;100183.69;5052179;28;20098;-61
2023/06/06 08:25:04;;;;;;;2.10;1.60;;;;;;;36.95;10.48;100191.69;5052242;28;20138;-59
2023/06/06 08:27:30;;;;;;;1.60;1.45;;;;;;;34.69;12.31;100179.09;5050456;28;20052;-62
2023/06/06 08:29:56;;;;;;;1.85;1.50;;;;;;;32.77;13.60;100191.97;5048867;28;20453;-62
2023/06/06 08:32:21;;;;;;;1.40;1.30;;;;;;;31.14;15.09;100190.47;5049612;28;20043;-62
2023/06/06 08:34:47;;;;;;;3.05;1.40;;;;;;;29.68;16.68;100183.28;5049352;28;20086;-61
2023/06/06 08:37:12;;;;;;;4.55;1.65;;;;;;;28.73;17.13;100184.00;5049047;28;20115;-62
2023/06/06 08:39:38;;;;;;;4.55;1.67;;;;;;;28.17;18.01;100173.16;5048847;28;20444;-58
2023/06/06 08:42:07;;;;;;;2.20;1.63;;;;;;;27.69;17.83;100158.25;5048604;28;20036;-64
2023/06/06 08:44:33;;;;;;;2.83;1.55;;;;;;;27.43;18.17;100177.56;5050089;28;20037;-63
2023/06/06 08:47:00;;;;;;;3.63;1.52;;;;;;;26.96;19.54;100191.72;5050065;28;20052;-61
2023/06/06 08:49:27;;;;;;;2.65;1.38;;;;;;;26.32;20.35;100189.78;5051481;28;20029;-60
2023/06/06 08:51:55;;;;;;;5.97;1.63;;;;;;;25.77;20.79;100184.69;5050234;28;20029;-61
2023/06/06 08:54:20;;;;;;;2.25;1.25;;;;;;;25.39;21.16;100169.78;5050970;28;20029;-60
2023/06/06 08:56:46;;;;;;;1.77;1.30;;;;;;;25.05;21.11;100169.81;5034166;28;20025;-61
2023/06/06 08:59:13;;;;;;;2.97;2.10;;;;;;;24.91;21.80;100168.16;5049382;28;20029;-62
2023/06/06 09:01:40;;;;;;;6.32;1.80;;;;;;;24.84;22.12;100172.78;5050493;28;20388;-62
2023/06/06 09:04:08;;;;;;;5.00;1.42;;;;;;;24.81;21.52;100163.09;5050296;28;20029;-61
2023/06/06 09:06:38;;;;;;;2.13;1.33;;;;;;;24.70;21.88;100166.41;5045566;28;20051;-61
2023/06/06 09:09:07;;;;;;;3.05;1.70;;;;;;;24.59;23.04;100174.19;5050600;28;20109;-64
2023/06/06 09:11:33;;;;;;;1.40;1.30;;;;;;;24.61;22.21;100160.31;5050327;28;20108;-64
2023/06/06 09:13:58;;;;;;;3.70;1.75;;;;;;;24.50;22.57;100135.22;5050641;28;20112;-55
2023/06/06 09:16:26;;;;;;;2.38;1.35;;;;;;;24.70;22.54;100159.06;5050571;28;20103;-58
2023/06/06 09:18:55;;;;;;;3.92;1.75;;;;;;;24.60;22.28;100150.44;5050581;28;20087;-61
2023/06/06 09:21:21;;;;;;;4.30;1.20;;;;;;;24.58;22.13;100130.59;5050756;28;20048;-58
2023/06/06 09:23:46;;;;;;;3.28;1.40;;;;;;;24.59;22.17;100135.03;5049993;28;20029;-63
2023/06/06 09:26:20;;;;;;;4.22;1.60;;;;;;;24.83;21.55;100138.22;5049369;28;20440;-61
2023/06/06 09:28:46;;;;;;;2.17;1.40;;;;;;;24.92;21.70;100129.59;5049055;28;20029;-62
2023/06/06 09:31:29;;;;;;;1.60;1.50;;;;;;;25.23;21.50;100140.94;5048618;28;20093;-59
2023/06/06 09:33:57;;;;;;;2.15;1.55;;;;;;;25.36;21.74;100132.72;5049128;28;20033;-63
2023/06/06 09:36:27;;;;;;;2.85;1.48;;;;;;;25.73;20.95;100136.84;5049627;28;20052;-62
2023/06/06 09:38:55;;;;;;;3.45;1.80;;;;;;;26.07;20.95;100129.31;5049644;28;20029;-60
2023/06/06 09:41:24;;;;;;;5.13;1.45;;;;;;;26.34;20.72;100126.44;5051015;28;20061;-57
2023/06/06 09:43:49;;;;;;;2.10;1.35;;;;;;;26.20;20.03;100128.44;5051010;28;20833;-59
2023/06/06 09:46:16;;;;;;;2.38;1.80;;;;;;;25.97;19.80;100132.53;5050779;28;20029;-59
2023/06/06 09:48:43;;;;;;;3.13;1.60;;;;;;;25.82;20.28;100129.22;5048255;28;20377;-62
2023/06/06 09:51:11;;;;;;;2.25;1.80;;;;;;;25.82;20.48;100138.28;5050571;28;20039;-62
2023/06/06 09:53:36;;;;;;;2.65;1.90;;;;;;;25.75;20.54;100115.53;5052199;28;20028;-62
2023/06/06 09:56:03;;;;;;;2.25;1.48;;;;;;;25.72;20.40;100124.19;5054460;28;20043;-61
2023/06/06 09:58:32;;;;;;;3.25;2.00;;;;;;;25.60;20.62;100132.25;5053768;28;20033;-63
2023/06/06 10:00:58;;;;;;;1.65;1.55;;;;;;;25.30;21.59;100133.53;5051974;28;20033;-65
2023/06/06 10:03:24;;;;;;;2.90;1.30;;;;;;;24.85;22.32;100130.66;5054398;28;20036;-61
2023/06/06 10:05:51;;;;;;;3.95;1.73;;;;;;;24.33;22.94;100125.72;5053790;28;20033;-61
2023/06/06 10:08:18;;;;;;;3.25;1.75;;;;;;;24.13;23.05;100133.88;5053782;28;20036;-62
2023/06/06 10:10:46;;;;;;;4.68;1.90;;;;;;;23.86;23.43;100129.13;5054160;28;20036;-62
2023/06/06 10:13:13;;;;;;;3.00;1.83;;;;;;;23.75;23.21;100124.25;5054297;28;20486;-60
2023/06/06 10:15:40;;;;;;;4.97;2.10;;;;;;;23.70;23.50;100126.78;5053278;28;20116;-60
2023/06/06 10:18:09;;;;;;;5.10;2.10;;;;;;;23.82;23.80;100118.81;5054601;28;20052;-69
2023/06/06 10:20:36;;;;;;;3.72;1.95;;;;;;;23.94;23.83;100103.50;5053758;28;20049;-58
2023/06/06 10:23:02;;;;;;;2.95;1.58;;;;;;;24.68;23.35;100130.19;5053606;28;20033;-63
2023/06/06 10:25:29;;;;;;;2.30;1.60;;;;;;;25.11;22.55;100134.44;5052869;28;20450;-59
2023/06/06 10:28:17;;;;;;;5.75;1.88;;;;;;;25.44;22.13;100128.06;5052096;28;20025;-61
2023/06/06 10:30:42;;;;;;;2.30;1.67;;;;;;;25.54;22.55;100125.72;5050390;28;20053;-63
2023/06/06 10:33:33;;;;;;;7.97;2.63;;;;;;;25.60;22.33;100127.63;5052214;28;20025;-62
2023/06/06 10:36:04;;;;;;;8.52;2.08;;;;;;;25.19;23.14;100142.44;5051864;28;20168;-63
2023/06/06 10:38:32;;;;;;;5.60;1.92;;;;;;;24.89;23.65;100120.97;5051126;28;20479;-60
2023/06/06 10:41:00;;;;;;;4.00;1.48;;;;;;;24.92;22.86;100128.75;5050791;28;20037;-61
2023/06/06 10:43:32;;;;;;;2.90;1.65;;;;;;;25.08;23.04;100136.56;5035878;28;20086;-61
2023/06/06 10:45:58;;;;;;;3.85;1.55;;;;;;;25.07;23.18;100121.16;5052856;28;20040;-62
2023/06/06 10:48:36;;;;;;;5.15;1.60;;;;;;;25.22;23.26;100122.81;5053182;28;20103;-62
2023/06/06 10:51:01;;;;;;;4.30;1.75;;;;;;;25.00;23.74;100112.09;5052835;28;20364;-61
2023/06/06 10:53:27;;;;;;;3.78;2.00;;;;;;;24.90;23.19;100111.72;5053822;28;20044;-62
2023/06/06 10:55:52;;;;;;;4.03;1.55;;;;;;;24.53;23.29;100081.97;5053231;28;20065;-62
2023/06/06 10:58:29;;;;;;;4.63;1.80;;;;;;;24.76;23.33;100128.13;5052899;28;20029;-62
2023/06/06 11:01:03;;;;;;;2.47;1.90;;;;;;;24.84;23.68;100127.06;5051880;28;20036;-64
2023/06/06 11:03:37;;;;;;;1.92;1.73;;;;;;;25.07;23.86;100123.88;5053254;28;20068;-62
2023/06/06 11:06:06;;;;;;;2.30;1.65;;;;;;;25.26;23.12;100123.25;5052813;28;20112;-64
2023/06/06 11:08:38;;;;;;;2.35;1.85;;;;;;;25.42;23.25;100111.81;5052759;28;20032;-65
2023/06/06 11:11:16;;;;;;;2.15;1.95;;;;;;;25.64;23.30;100111.56;5035081;28;20331;-62
2023/06/06 11:13:51;;;;;;;3.97;1.70;;;;;;;25.70;23.28;100107.97;5052840;28;20060;-63
2023/06/06 11:16:43;;;;;;;1.73;1.60;;;;;;;25.60;23.20;100100.19;5051491;28;20040;-64
2023/06/06 11:19:15;;;;;;;2.35;1.55;;;;;;;25.34;23.33;100099.19;5050984;28;20073;-63
2023/06/06 11:21:42;;;;;;;2.10;1.48;;;;;;;25.05;24.04;100100.53;5033043;28;20057;-61
2023/06/06 11:24:09;;;;;;;4.55;1.70;;;;;;;24.63;24.43;100090.59;5015805;28;20022;-63
2023/06/06 11:26:36;;;;;;;10.75;2.55;;;;;;;24.31;24.53;100105.94;5033901;28;20112;-62
2023/06/06 11:29:02;;;;;;;4.32;2.10;;;;;;;23.77;24.73;100087.47;5034328;28;20032;-63